Terminal Aerodrome Forecast
Issued by NWS

Home | Current Version | Previous Version | Text Only | Print | Product List | Glossary On
Versions: 1 2 3 4 5 6 7 8 9 10 11 12 13
000
FTUS43 KGRR 210540
TAFMKG
TAF
KMKG 210540Z 2106/2206 18010KT P6SM BKN250
     FM211500 18015G21KT P6SM BKN200
     FM212200 16012KT P6SM SCT250=

USA.gov is the U.S. government's official web portal to all federal, state and local government web resources and services.